sensor_id;sensor_type;location;lat;lon;timestamp;P1;durP1;ratioP1;P2;durP2;ratioP2
77495;SDS011;66600;48.378;9.948;2023-02-02T00:01:59;9.70;;;2.90;;
77495;SDS011;66600;48.378;9.948;2023-02-02T00:04:27;10.65;;;2.88;;
77495;SDS011;66600;48.378;9.948;2023-02-02T00:06:57;7.45;;;2.65;;
77495;SDS011;66600;48.378;9.948;2023-02-02T00:09:23;12.82;;;3.47;;
77495;SDS011;66600;48.378;9.948;2023-02-02T00:11:52;6.88;;;3.13;;
77495;SDS011;66600;48.378;9.948;2023-02-02T00:14:18;9.50;;;3.60;;
77495;SDS011;66600;48.378;9.948;2023-02-02T00:16:48;8.88;;;2.80;;
77495;SDS011;66600;48.378;9.948;2023-02-02T00:19:15;12.15;;;2.88;;
77495;SDS011;66600;48.378;9.948;2023-02-02T00:21:45;6.03;;;2.80;;
77495;SDS011;66600;48.378;9.948;2023-02-02T00:24:12;7.50;;;2.88;;
77495;SDS011;66600;48.378;9.948;2023-02-02T00:26:39;7.85;;;2.60;;
77495;SDS011;66600;48.378;9.948;2023-02-02T00:29:06;8.02;;;2.60;;
77495;SDS011;66600;48.378;9.948;2023-02-02T00:31:35;9.43;;;3.08;;
77495;SDS011;66600;48.378;9.948;2023-02-02T00:34:01;8.68;;;2.83;;
77495;SDS011;66600;48.378;9.948;2023-02-02T00:36:26;8.93;;;2.80;;
77495;SDS011;66600;48.378;9.948;2023-02-02T00:38:51;5.25;;;2.35;;
77495;SDS011;66600;48.378;9.948;2023-02-02T00:41:17;10.77;;;3.08;;
77495;SDS011;66600;48.378;9.948;2023-02-02T00:43:43;10.93;;;3.03;;
77495;SDS011;66600;48.378;9.948;2023-02-02T00:46:11;9.98;;;4.07;;
77495;SDS011;66600;48.378;9.948;2023-02-02T00:48:40;8.57;;;2.95;;
77495;SDS011;66600;48.378;9.948;2023-02-02T00:51:06;8.43;;;2.78;;
77495;SDS011;66600;48.378;9.948;2023-02-02T00:53:31;8.05;;;2.75;;
77495;SDS011;66600;48.378;9.948;2023-02-02T00:55:56;8.52;;;2.97;;
77495;SDS011;66600;48.378;9.948;2023-02-02T00:58:22;11.50;;;2.97;;
77495;SDS011;66600;48.378;9.948;2023-02-02T01:00:47;7.82;;;2.40;;
77495;SDS011;66600;48.378;9.948;2023-02-02T01:03:12;6.07;;;2.53;;
77495;SDS011;66600;48.378;9.948;2023-02-02T01:05:38;8.02;;;2.63;;
77495;SDS011;66600;48.378;9.948;2023-02-02T01:08:03;12.57;;;3.30;;
77495;SDS011;66600;48.378;9.948;2023-02-02T01:10:29;9.98;;;3.00;;
77495;SDS011;66600;48.378;9.948;2023-02-02T01:12:54;7.05;;;2.13;;
77495;SDS011;66600;48.378;9.948;2023-02-02T01:15:20;13.45;;;2.60;;
77495;SDS011;66600;48.378;9.948;2023-02-02T01:17:45;11.95;;;2.97;;
77495;SDS011;66600;48.378;9.948;2023-02-02T01:20:14;7.00;;;2.30;;
77495;SDS011;66600;48.378;9.948;2023-02-02T01:22:41;8.57;;;2.00;;
77495;SDS011;66600;48.378;9.948;2023-02-02T01:25:07;10.18;;;2.45;;
77495;SDS011;66600;48.378;9.948;2023-02-02T01:27:33;7.28;;;2.42;;
77495;SDS011;66600;48.378;9.948;2023-02-02T01:29:58;8.38;;;2.88;;
77495;SDS011;66600;48.378;9.948;2023-02-02T01:32:23;10.07;;;2.75;;
77495;SDS011;66600;48.378;9.948;2023-02-02T01:34:49;5.32;;;2.50;;
77495;SDS011;66600;48.378;9.948;2023-02-02T01:37:14;8.65;;;2.95;;
77495;SDS011;66600;48.378;9.948;2023-02-02T01:39:39;11.23;;;4.20;;
77495;SDS011;66600;48.378;9.948;2023-02-02T01:42:10;10.10;;;3.08;;
77495;SDS011;66600;48.378;9.948;2023-02-02T01:47:15;6.97;;;2.65;;
77495;SDS011;66600;48.378;9.948;2023-02-02T01:49:41;8.43;;;2.55;;
77495;SDS011;66600;48.378;9.948;2023-02-02T01:52:06;5.45;;;2.60;;
77495;SDS011;66600;48.378;9.948;2023-02-02T01:54:38;9.82;;;2.83;;
77495;SDS011;66600;48.378;9.948;2023-02-02T01:57:11;10.13;;;2.50;;
77495;SDS011;66600;48.378;9.948;2023-02-02T01:59:40;8.60;;;2.15;;
77495;SDS011;66600;48.378;9.948;2023-02-02T02:02:08;8.15;;;2.60;;
77495;SDS011;66600;48.378;9.948;2023-02-02T02:04:34;6.53;;;3.00;;
77495;SDS011;66600;48.378;9.948;2023-02-02T02:07:00;5.57;;;1.98;;
77495;SDS011;66600;48.378;9.948;2023-02-02T02:09:27;5.78;;;2.70;;
77495;SDS011;66600;48.378;9.948;2023-02-02T02:11:52;5.80;;;2.20;;
77495;SDS011;66600;48.378;9.948;2023-02-02T02:14:18;6.80;;;2.00;;
77495;SDS011;66600;48.378;9.948;2023-02-02T02:19:57;8.77;;;2.38;;
77495;SDS011;66600;48.378;9.948;2023-02-02T02:22:55;8.30;;;2.25;;
77495;SDS011;66600;48.378;9.948;2023-02-02T02:43:07;5.47;;;2.20;;
77495;SDS011;66600;48.378;9.948;2023-02-02T02:45:40;5.13;;;2.20;;
77495;SDS011;66600;48.378;9.948;2023-02-02T02:48:08;9.85;;;2.40;;
77495;SDS011;66600;48.378;9.948;2023-02-02T02:50:34;6.30;;;2.85;;
77495;SDS011;66600;48.378;9.948;2023-02-02T02:53:04;8.57;;;2.40;;
77495;SDS011;66600;48.378;9.948;2023-02-02T02:55:38;8.13;;;2.50;;
77495;SDS011;66600;48.378;9.948;2023-02-02T03:01:35;7.97;;;2.20;;
77495;SDS011;66600;48.378;9.948;2023-02-02T03:06:59;5.65;;;2.28;;
77495;SDS011;66600;48.378;9.948;2023-02-02T03:09:32;7.72;;;2.38;;
77495;SDS011;66600;48.378;9.948;2023-02-02T03:12:00;6.18;;;2.40;;
77495;SDS011;66600;48.378;9.948;2023-02-02T03:14:27;6.45;;;2.50;;
77495;SDS011;66600;48.378;9.948;2023-02-02T03:16:52;6.70;;;2.60;;
77495;SDS011;66600;48.378;9.948;2023-02-02T03:19:18;5.35;;;2.58;;
77495;SDS011;66600;48.378;9.948;2023-02-02T03:21:43;7.85;;;3.10;;
77495;SDS011;66600;48.378;9.948;2023-02-02T03:24:09;11.60;;;2.90;;
77495;SDS011;66600;48.378;9.948;2023-02-02T03:26:34;10.05;;;3.05;;
77495;SDS011;66600;48.378;9.948;2023-02-02T03:28:59;7.43;;;2.97;;
77495;SDS011;66600;48.378;9.948;2023-02-02T03:31:25;8.43;;;3.10;;
77495;SDS011;66600;48.378;9.948;2023-02-02T03:33:52;12.60;;;2.83;;
77495;SDS011;66600;48.378;9.948;2023-02-02T03:36:18;7.10;;;2.97;;
77495;SDS011;66600;48.378;9.948;2023-02-02T03:38:43;8.30;;;2.72;;
77495;SDS011;66600;48.378;9.948;2023-02-02T03:41:08;6.63;;;2.50;;
77495;SDS011;66600;48.378;9.948;2023-02-02T03:43:34;10.63;;;2.88;;
77495;SDS011;66600;48.378;9.948;2023-02-02T03:46:00;8.50;;;3.25;;
77495;SDS011;66600;48.378;9.948;2023-02-02T03:48:33;7.55;;;2.42;;
77495;SDS011;66600;48.378;9.948;2023-02-02T03:50:59;6.82;;;2.58;;
77495;SDS011;66600;48.378;9.948;2023-02-02T03:53:24;7.20;;;2.50;;
77495;SDS011;66600;48.378;9.948;2023-02-02T03:55:50;8.32;;;3.00;;
77495;SDS011;66600;48.378;9.948;2023-02-02T03:58:15;6.80;;;2.22;;
77495;SDS011;66600;48.378;9.948;2023-02-02T04:00:41;7.75;;;2.63;;
77495;SDS011;66600;48.378;9.948;2023-02-02T04:03:07;8.48;;;2.60;;
77495;SDS011;66600;48.378;9.948;2023-02-02T04:05:32;10.50;;;2.75;;
77495;SDS011;66600;48.378;9.948;2023-02-02T04:07:57;7.82;;;2.53;;
77495;SDS011;66600;48.378;9.948;2023-02-02T04:10:22;5.22;;;2.33;;
77495;SDS011;66600;48.378;9.948;2023-02-02T04:12:48;6.60;;;2.42;;
77495;SDS011;66600;48.378;9.948;2023-02-02T04:15:13;8.27;;;2.17;;
77495;SDS011;66600;48.378;9.948;2023-02-02T04:17:38;3.92;;;1.90;;
77495;SDS011;66600;48.378;9.948;2023-02-02T04:20:05;4.13;;;1.70;;
77495;SDS011;66600;48.378;9.948;2023-02-02T04:22:31;8.23;;;1.70;;
77495;SDS011;66600;48.378;9.948;2023-02-02T04:24:57;4.65;;;1.70;;
77495;SDS011;66600;48.378;9.948;2023-02-02T04:27:22;2.67;;;1.75;;
77495;SDS011;66600;48.378;9.948;2023-02-02T04:29:48;4.20;;;1.65;;
77495;SDS011;66600;48.378;9.948;2023-02-02T04:32:13;6.72;;;1.60;;
77495;SDS011;66600;48.378;9.948;2023-02-02T04:34:40;3.35;;;1.60;;
77495;SDS011;66600;48.378;9.948;2023-02-02T04:37:05;5.70;;;1.75;;
77495;SDS011;66600;48.378;9.948;2023-02-02T04:39:31;6.93;;;2.33;;
77495;SDS011;66600;48.378;9.948;2023-02-02T04:41:56;5.03;;;1.50;;
77495;SDS011;66600;48.378;9.948;2023-02-02T04:44:21;4.22;;;1.50;;
77495;SDS011;66600;48.378;9.948;2023-02-02T04:46:46;4.88;;;1.80;;
77495;SDS011;66600;48.378;9.948;2023-02-02T04:49:12;3.65;;;1.58;;
77495;SDS011;66600;48.378;9.948;2023-02-02T04:51:38;5.78;;;1.50;;
77495;SDS011;66600;48.378;9.948;2023-02-02T04:54:04;3.83;;;1.30;;
77495;SDS011;66600;48.378;9.948;2023-02-02T04:56:30;4.38;;;1.70;;
77495;SDS011;66600;48.378;9.948;2023-02-02T04:58:55;5.53;;;1.77;;
77495;SDS011;66600;48.378;9.948;2023-02-02T05:01:21;3.35;;;1.30;;
77495;SDS011;66600;48.378;9.948;2023-02-02T05:03:47;6.28;;;1.45;;
77495;SDS011;66600;48.378;9.948;2023-02-02T05:06:12;4.13;;;1.42;;
77495;SDS011;66600;48.378;9.948;2023-02-02T05:08:38;4.25;;;1.30;;
77495;SDS011;66600;48.378;9.948;2023-02-02T05:11:07;2.55;;;1.10;;
77495;SDS011;66600;48.378;9.948;2023-02-02T05:13:34;4.18;;;1.40;;
77495;SDS011;66600;48.378;9.948;2023-02-02T05:15:59;4.35;;;1.15;;
77495;SDS011;66600;48.378;9.948;2023-02-02T05:18:25;5.22;;;1.90;;
77495;SDS011;66600;48.378;9.948;2023-02-02T05:20:51;4.32;;;1.60;;
77495;SDS011;66600;48.378;9.948;2023-02-02T05:25:51;4.32;;;1.50;;
77495;SDS011;66600;48.378;9.948;2023-02-02T05:28:17;3.88;;;1.20;;
77495;SDS011;66600;48.378;9.948;2023-02-02T05:30:43;3.53;;;1.40;;
77495;SDS011;66600;48.378;9.948;2023-02-02T05:33:09;6.82;;;2.63;;
77495;SDS011;66600;48.378;9.948;2023-02-02T05:35:35;4.93;;;1.25;;
77495;SDS011;66600;48.378;9.948;2023-02-02T05:38:00;4.50;;;1.67;;
77495;SDS011;66600;48.378;9.948;2023-02-02T05:40:26;1.83;;;0.95;;
77495;SDS011;66600;48.378;9.948;2023-02-02T05:42:51;3.40;;;1.48;;
77495;SDS011;66600;48.378;9.948;2023-02-02T05:45:16;4.00;;;1.20;;
77495;SDS011;66600;48.378;9.948;2023-02-02T05:47:42;3.03;;;1.30;;
77495;SDS011;66600;48.378;9.948;2023-02-02T05:50:07;2.67;;;1.13;;
77495;SDS011;66600;48.378;9.948;2023-02-02T05:52:33;1.67;;;1.05;;
77495;SDS011;66600;48.378;9.948;2023-02-02T05:54:59;2.05;;;1.20;;
77495;SDS011;66600;48.378;9.948;2023-02-02T05:57:25;4.45;;;1.23;;
77495;SDS011;66600;48.378;9.948;2023-02-02T05:59:51;2.50;;;1.40;;
77495;SDS011;66600;48.378;9.948;2023-02-02T06:02:17;1.95;;;1.35;;
77495;SDS011;66600;48.378;9.948;2023-02-02T06:04:42;3.65;;;1.13;;
77495;SDS011;66600;48.378;9.948;2023-02-02T06:07:08;3.47;;;1.00;;
77495;SDS011;66600;48.378;9.948;2023-02-02T06:09:33;3.55;;;1.10;;
77495;SDS011;66600;48.378;9.948;2023-02-02T06:11:58;2.35;;;1.20;;
77495;SDS011;66600;48.378;9.948;2023-02-02T06:14:24;3.15;;;1.10;;
77495;SDS011;66600;48.378;9.948;2023-02-02T06:16:49;1.42;;;1.00;;
77495;SDS011;66600;48.378;9.948;2023-02-02T06:19:14;3.97;;;1.00;;
77495;SDS011;66600;48.378;9.948;2023-02-02T06:21:40;3.45;;;1.30;;
77495;SDS011;66600;48.378;9.948;2023-02-02T06:24:05;4.07;;;1.17;;
77495;SDS011;66600;48.378;9.948;2023-02-02T06:26:31;2.30;;;1.13;;
77495;SDS011;66600;48.378;9.948;2023-02-02T06:28:56;1.70;;;0.95;;
77495;SDS011;66600;48.378;9.948;2023-02-02T06:31:21;1.17;;;0.77;;
77495;SDS011;66600;48.378;9.948;2023-02-02T06:33:51;4.70;;;1.60;;
77495;SDS011;66600;48.378;9.948;2023-02-02T06:36:17;3.95;;;1.60;;
77495;SDS011;66600;48.378;9.948;2023-02-02T06:38:46;3.33;;;1.67;;
77495;SDS011;66600;48.378;9.948;2023-02-02T06:41:12;5.38;;;1.98;;
77495;SDS011;66600;48.378;9.948;2023-02-02T06:43:38;3.47;;;1.42;;
77495;SDS011;66600;48.378;9.948;2023-02-02T06:46:03;4.93;;;1.23;;
77495;SDS011;66600;48.378;9.948;2023-02-02T06:48:28;3.38;;;1.20;;
77495;SDS011;66600;48.378;9.948;2023-02-02T06:50:56;5.30;;;1.50;;
77495;SDS011;66600;48.378;9.948;2023-02-02T06:55:55;4.32;;;1.17;;
77495;SDS011;66600;48.378;9.948;2023-02-02T06:58:21;2.90;;;1.50;;
77495;SDS011;66600;48.378;9.948;2023-02-02T07:00:47;3.92;;;1.65;;
77495;SDS011;66600;48.378;9.948;2023-02-02T07:03:13;3.28;;;1.55;;
77495;SDS011;66600;48.378;9.948;2023-02-02T07:05:39;3.58;;;1.58;;
77495;SDS011;66600;48.378;9.948;2023-02-02T07:08:04;4.35;;;2.00;;
77495;SDS011;66600;48.378;9.948;2023-02-02T07:10:30;3.45;;;1.50;;
77495;SDS011;66600;48.378;9.948;2023-02-02T07:12:55;4.18;;;1.50;;
77495;SDS011;66600;48.378;9.948;2023-02-02T07:15:20;6.95;;;1.80;;
77495;SDS011;66600;48.378;9.948;2023-02-02T07:17:46;3.83;;;1.40;;
77495;SDS011;66600;48.378;9.948;2023-02-02T07:20:11;4.50;;;1.52;;
77495;SDS011;66600;48.378;9.948;2023-02-02T07:22:37;7.47;;;2.10;;
77495;SDS011;66600;48.378;9.948;2023-02-02T07:25:03;6.25;;;2.03;;
77495;SDS011;66600;48.378;9.948;2023-02-02T07:27:29;5.95;;;1.92;;
77495;SDS011;66600;48.378;9.948;2023-02-02T07:29:54;3.50;;;1.88;;
77495;SDS011;66600;48.378;9.948;2023-02-02T07:32:20;3.10;;;1.70;;
77495;SDS011;66600;48.378;9.948;2023-02-02T07:34:45;9.25;;;2.00;;
77495;SDS011;66600;48.378;9.948;2023-02-02T07:37:10;3.42;;;1.75;;
77495;SDS011;66600;48.378;9.948;2023-02-02T07:39:36;4.05;;;1.77;;
77495;SDS011;66600;48.378;9.948;2023-02-02T07:42:01;5.53;;;2.20;;
77495;SDS011;66600;48.378;9.948;2023-02-02T07:44:26;5.40;;;2.08;;
77495;SDS011;66600;48.378;9.948;2023-02-02T07:46:52;4.47;;;2.00;;
77495;SDS011;66600;48.378;9.948;2023-02-02T07:49:17;6.20;;;2.25;;
77495;SDS011;66600;48.378;9.948;2023-02-02T07:51:44;6.28;;;2.17;;
77495;SDS011;66600;48.378;9.948;2023-02-02T07:54:11;6.43;;;2.00;;
77495;SDS011;66600;48.378;9.948;2023-02-02T07:56:37;4.95;;;2.30;;
77495;SDS011;66600;48.378;9.948;2023-02-02T07:59:03;8.30;;;2.55;;
77495;SDS011;66600;48.378;9.948;2023-02-02T08:01:29;5.60;;;2.00;;
77495;SDS011;66600;48.378;9.948;2023-02-02T08:03:55;6.30;;;2.10;;
77495;SDS011;66600;48.378;9.948;2023-02-02T08:06:25;5.00;;;1.80;;
77495;SDS011;66600;48.378;9.948;2023-02-02T08:08:52;7.50;;;2.35;;
77495;SDS011;66600;48.378;9.948;2023-02-02T08:11:19;7.55;;;2.15;;
77495;SDS011;66600;48.378;9.948;2023-02-02T08:13:50;3.90;;;2.15;;
77495;SDS011;66600;48.378;9.948;2023-02-02T08:16:17;4.70;;;1.98;;
77495;SDS011;66600;48.378;9.948;2023-02-02T08:18:43;4.50;;;1.80;;
77495;SDS011;66600;48.378;9.948;2023-02-02T08:21:09;6.20;;;2.03;;
77495;SDS011;66600;48.378;9.948;2023-02-02T08:23:35;4.05;;;1.75;;
77495;SDS011;66600;48.378;9.948;2023-02-02T08:26:09;4.63;;;2.35;;
77495;SDS011;66600;48.378;9.948;2023-02-02T08:28:36;5.80;;;2.00;;
77495;SDS011;66600;48.378;9.948;2023-02-02T08:31:03;5.88;;;2.30;;
77495;SDS011;66600;48.378;9.948;2023-02-02T08:33:32;4.90;;;1.90;;
77495;SDS011;66600;48.378;9.948;2023-02-02T08:35:57;4.10;;;1.83;;
77495;SDS011;66600;48.378;9.948;2023-02-02T08:38:23;3.17;;;1.60;;
77495;SDS011;66600;48.378;9.948;2023-02-02T08:40:48;1.45;;;1.23;;
77495;SDS011;66600;48.378;9.948;2023-02-02T08:43:14;3.42;;;1.73;;
77495;SDS011;66600;48.378;9.948;2023-02-02T08:45:41;6.43;;;1.40;;
77495;SDS011;66600;48.378;9.948;2023-02-02T08:48:07;4.57;;;1.73;;
77495;SDS011;66600;48.378;9.948;2023-02-02T08:50:32;6.07;;;1.52;;
77495;SDS011;66600;48.378;9.948;2023-02-02T08:52:57;3.38;;;1.20;;
77495;SDS011;66600;48.378;9.948;2023-02-02T08:55:23;3.83;;;1.65;;
77495;SDS011;66600;48.378;9.948;2023-02-02T08:57:48;3.85;;;1.30;;
77495;SDS011;66600;48.378;9.948;2023-02-02T09:00:13;2.50;;;1.60;;
77495;SDS011;66600;48.378;9.948;2023-02-02T09:02:39;4.93;;;1.30;;
77495;SDS011;66600;48.378;9.948;2023-02-02T09:05:04;2.03;;;1.15;;
77495;SDS011;66600;48.378;9.948;2023-02-02T09:07:31;3.67;;;1.60;;
77495;SDS011;66600;48.378;9.948;2023-02-02T09:09:56;3.65;;;1.25;;
77495;SDS011;66600;48.378;9.948;2023-02-02T09:12:22;3.42;;;1.40;;
77495;SDS011;66600;48.378;9.948;2023-02-02T09:14:48;4.07;;;1.13;;
77495;SDS011;66600;48.378;9.948;2023-02-02T09:17:13;5.20;;;1.60;;
77495;SDS011;66600;48.378;9.948;2023-02-02T09:19:38;2.05;;;1.20;;
77495;SDS011;66600;48.378;9.948;2023-02-02T09:22:04;5.50;;;1.80;;
77495;SDS011;66600;48.378;9.948;2023-02-02T09:24:29;8.00;;;1.80;;
77495;SDS011;66600;48.378;9.948;2023-02-02T09:26:54;6.13;;;1.75;;
77495;SDS011;66600;48.378;9.948;2023-02-02T09:29:20;4.63;;;2.30;;
77495;SDS011;66600;48.378;9.948;2023-02-02T09:31:45;3.15;;;1.88;;
77495;SDS011;66600;48.378;9.948;2023-02-02T09:34:11;7.65;;;2.55;;
77495;SDS011;66600;48.378;9.948;2023-02-02T09:36:38;6.65;;;1.83;;
77495;SDS011;66600;48.378;9.948;2023-02-02T09:39:04;5.85;;;2.28;;
77495;SDS011;66600;48.378;9.948;2023-02-02T09:41:36;2.15;;;1.30;;
77495;SDS011;66600;48.378;9.948;2023-02-02T09:44:33;3.60;;;1.35;;
77495;SDS011;66600;48.378;9.948;2023-02-02T09:47:29;3.25;;;1.50;;
77495;SDS011;66600;48.378;9.948;2023-02-02T09:50:17;3.67;;;1.52;;
77495;SDS011;66600;48.378;9.948;2023-02-02T09:52:51;7.55;;;2.00;;
77495;SDS011;66600;48.378;9.948;2023-02-02T09:58:27;4.20;;;1.70;;
77495;SDS011;66600;48.378;9.948;2023-02-02T10:01:11;3.15;;;1.63;;
77495;SDS011;66600;48.378;9.948;2023-02-02T10:06:29;8.52;;;2.55;;
77495;SDS011;66600;48.378;9.948;2023-02-02T10:17:17;6.15;;;1.70;;
77495;SDS011;66600;48.378;9.948;2023-02-02T10:19:46;5.13;;;1.25;;
77495;SDS011;66600;48.378;9.948;2023-02-02T10:22:23;2.45;;;1.40;;
77495;SDS011;66600;48.378;9.948;2023-02-02T10:25:00;4.90;;;1.30;;
77495;SDS011;66600;48.378;9.948;2023-02-02T10:27:30;3.00;;;1.38;;
77495;SDS011;66600;48.378;9.948;2023-02-02T10:30:06;2.60;;;1.25;;
77495;SDS011;66600;48.378;9.948;2023-02-02T10:32:56;4.07;;;1.50;;
77495;SDS011;66600;48.378;9.948;2023-02-02T10:35:53;5.20;;;1.42;;
77495;SDS011;66600;48.378;9.948;2023-02-02T10:43:57;3.13;;;1.30;;
77495;SDS011;66600;48.378;9.948;2023-02-02T10:46:42;2.45;;;1.10;;
77495;SDS011;66600;48.378;9.948;2023-02-02T10:49:34;1.77;;;1.20;;
77495;SDS011;66600;48.378;9.948;2023-02-02T10:52:10;2.67;;;1.50;;
77495;SDS011;66600;48.378;9.948;2023-02-02T10:54:45;5.65;;;1.70;;
77495;SDS011;66600;48.378;9.948;2023-02-02T10:57:12;5.20;;;2.38;;
77495;SDS011;66600;48.378;9.948;2023-02-02T10:59:43;4.15;;;1.70;;
77495;SDS011;66600;48.378;9.948;2023-02-02T11:04:44;4.18;;;2.03;;
77495;SDS011;66600;48.378;9.948;2023-02-02T11:07:28;4.22;;;2.33;;
77495;SDS011;66600;48.378;9.948;2023-02-02T11:09:54;6.07;;;2.22;;
77495;SDS011;66600;48.378;9.948;2023-02-02T11:12:33;6.82;;;2.80;;
77495;SDS011;66600;48.378;9.948;2023-02-02T11:15:05;5.57;;;2.03;;
77495;SDS011;66600;48.378;9.948;2023-02-02T11:17:33;7.30;;;2.78;;
77495;SDS011;66600;48.378;9.948;2023-02-02T11:19:59;7.90;;;2.78;;
77495;SDS011;66600;48.378;9.948;2023-02-02T11:22:27;7.00;;;2.53;;
77495;SDS011;66600;48.378;9.948;2023-02-02T11:24:59;6.45;;;2.80;;
77495;SDS011;66600;48.378;9.948;2023-02-02T11:29:56;7.30;;;2.80;;
77495;SDS011;66600;48.378;9.948;2023-02-02T11:32:32;5.80;;;2.28;;
77495;SDS011;66600;48.378;9.948;2023-02-02T11:37:26;5.03;;;2.80;;
77495;SDS011;66600;48.378;9.948;2023-02-02T11:39:52;5.45;;;3.13;;
77495;SDS011;66600;48.378;9.948;2023-02-02T11:44:49;8.73;;;3.08;;
77495;SDS011;66600;48.378;9.948;2023-02-02T11:49:44;9.52;;;2.80;;
77495;SDS011;66600;48.378;9.948;2023-02-02T11:52:15;4.70;;;3.00;;
77495;SDS011;66600;48.378;9.948;2023-02-02T11:54:47;6.30;;;2.83;;
77495;SDS011;66600;48.378;9.948;2023-02-02T11:57:15;8.82;;;2.85;;
77495;SDS011;66600;48.378;9.948;2023-02-02T11:59:44;8.10;;;3.58;;
77495;SDS011;66600;48.378;9.948;2023-02-02T12:02:20;6.60;;;2.97;;
77495;SDS011;66600;48.378;9.948;2023-02-02T12:04:48;11.40;;;3.10;;
77495;SDS011;66600;48.378;9.948;2023-02-02T12:07:16;8.65;;;2.88;;
77495;SDS011;66600;48.378;9.948;2023-02-02T12:09:42;8.38;;;3.25;;
77495;SDS011;66600;48.378;9.948;2023-02-02T12:14:53;9.13;;;2.30;;
77495;SDS011;66600;48.378;9.948;2023-02-02T12:17:43;7.68;;;2.67;;
77495;SDS011;66600;48.378;9.948;2023-02-02T12:20:12;6.50;;;2.65;;
77495;SDS011;66600;48.378;9.948;2023-02-02T12:22:50;9.15;;;3.80;;
77495;SDS011;66600;48.378;9.948;2023-02-02T12:31:21;5.20;;;2.30;;
77495;SDS011;66600;48.378;9.948;2023-02-02T12:37:01;3.42;;;1.77;;
77495;SDS011;66600;48.378;9.948;2023-02-02T12:44:36;2.80;;;1.30;;
77495;SDS011;66600;48.378;9.948;2023-02-02T12:48:22;6.43;;;1.20;;
77495;SDS011;66600;48.378;9.948;2023-02-02T12:50:29;3.35;;;1.50;;
77495;SDS011;66600;48.378;9.948;2023-02-02T12:53:13;2.25;;;1.20;;
77495;SDS011;66600;48.378;9.948;2023-02-02T12:56:08;4.55;;;1.45;;
77495;SDS011;66600;48.378;9.948;2023-02-02T13:01:55;2.50;;;1.40;;
77495;SDS011;66600;48.378;9.948;2023-02-02T13:04:36;2.83;;;1.50;;
77495;SDS011;66600;48.378;9.948;2023-02-02T13:07:25;4.03;;;1.50;;
77495;SDS011;66600;48.378;9.948;2023-02-02T13:12:40;4.07;;;1.38;;
77495;SDS011;66600;48.378;9.948;2023-02-02T13:15:10;3.97;;;1.45;;
77495;SDS011;66600;48.378;9.948;2023-02-02T13:17:40;4.88;;;1.58;;
77495;SDS011;66600;48.378;9.948;2023-02-02T13:20:15;2.83;;;1.20;;
77495;SDS011;66600;48.378;9.948;2023-02-02T13:22:45;2.10;;;1.20;;
77495;SDS011;66600;48.378;9.948;2023-02-02T13:25:15;1.70;;;1.30;;
77495;SDS011;66600;48.378;9.948;2023-02-02T13:27:46;7.50;;;1.70;;
77495;SDS011;66600;48.378;9.948;2023-02-02T13:30:21;3.35;;;1.60;;
77495;SDS011;66600;48.378;9.948;2023-02-02T13:32:53;2.70;;;1.48;;
77495;SDS011;66600;48.378;9.948;2023-02-02T13:35:27;2.95;;;1.13;;
77495;SDS011;66600;48.378;9.948;2023-02-02T13:38:04;5.97;;;1.40;;
77495;SDS011;66600;48.378;9.948;2023-02-02T13:40:43;3.55;;;1.50;;
77495;SDS011;66600;48.378;9.948;2023-02-02T13:43:18;3.25;;;1.30;;
77495;SDS011;66600;48.378;9.948;2023-02-02T13:46:07;2.38;;;1.23;;
77495;SDS011;66600;48.378;9.948;2023-02-02T14:02:40;2.35;;;1.20;;
77495;SDS011;66600;48.378;9.948;2023-02-02T14:05:19;1.80;;;1.00;;
77495;SDS011;66600;48.378;9.948;2023-02-02T14:08:04;3.42;;;1.15;;
77495;SDS011;66600;48.378;9.948;2023-02-02T14:10:44;3.38;;;1.27;;
77495;SDS011;66600;48.378;9.948;2023-02-02T14:13:23;2.03;;;1.27;;
77495;SDS011;66600;48.378;9.948;2023-02-02T14:16:19;3.05;;;1.48;;
77495;SDS011;66600;48.378;9.948;2023-02-02T14:18:50;4.38;;;1.60;;
77495;SDS011;66600;48.378;9.948;2023-02-02T14:24:01;2.85;;;1.23;;
77495;SDS011;66600;48.378;9.948;2023-02-02T14:32:02;3.38;;;1.52;;
77495;SDS011;66600;48.378;9.948;2023-02-02T14:34:55;3.35;;;1.70;;
77495;SDS011;66600;48.378;9.948;2023-02-02T14:43:04;2.35;;;1.30;;
77495;SDS011;66600;48.378;9.948;2023-02-02T14:45:38;2.50;;;1.40;;
77495;SDS011;66600;48.378;9.948;2023-02-02T14:48:10;2.75;;;1.40;;
77495;SDS011;66600;48.378;9.948;2023-02-02T14:50:50;3.22;;;1.88;;
77495;SDS011;66600;48.378;9.948;2023-02-02T14:53:19;3.90;;;1.60;;
77495;SDS011;66600;48.378;9.948;2023-02-02T15:06:41;4.07;;;1.52;;
77495;SDS011;66600;48.378;9.948;2023-02-02T15:19:53;3.40;;;1.75;;
77495;SDS011;66600;48.378;9.948;2023-02-02T15:24:54;3.70;;;1.65;;
77495;SDS011;66600;48.378;9.948;2023-02-02T15:27:21;3.38;;;1.52;;
77495;SDS011;66600;48.378;9.948;2023-02-02T15:29:49;3.38;;;1.58;;
77495;SDS011;66600;48.378;9.948;2023-02-02T15:32:21;3.83;;;1.70;;
77495;SDS011;66600;48.378;9.948;2023-02-02T15:34:57;4.97;;;1.60;;
77495;SDS011;66600;48.378;9.948;2023-02-02T15:37:27;4.35;;;1.83;;
77495;SDS011;66600;48.378;9.948;2023-02-02T15:40:04;3.22;;;1.80;;
77495;SDS011;66600;48.378;9.948;2023-02-02T15:42:46;5.22;;;1.95;;
77495;SDS011;66600;48.378;9.948;2023-02-02T15:47:51;3.97;;;1.58;;
77495;SDS011;66600;48.378;9.948;2023-02-02T15:50:18;4.97;;;1.92;;
77495;SDS011;66600;48.378;9.948;2023-02-02T15:52:45;3.10;;;1.70;;
77495;SDS011;66600;48.378;9.948;2023-02-02T15:55:17;3.33;;;1.80;;
77495;SDS011;66600;48.378;9.948;2023-02-02T15:57:45;3.50;;;1.70;;
77495;SDS011;66600;48.378;9.948;2023-02-02T16:00:21;4.00;;;2.08;;
77495;SDS011;66600;48.378;9.948;2023-02-02T16:05:44;4.20;;;1.83;;
77495;SDS011;66600;48.378;9.948;2023-02-02T16:08:14;4.65;;;2.22;;
77495;SDS011;66600;48.378;9.948;2023-02-02T16:10:43;4.35;;;1.70;;
77495;SDS011;66600;48.378;9.948;2023-02-02T16:13:16;5.25;;;2.03;;
77495;SDS011;66600;48.378;9.948;2023-02-02T16:18:18;5.15;;;2.10;;
77495;SDS011;66600;48.378;9.948;2023-02-02T16:20:44;4.28;;;2.28;;
77495;SDS011;66600;48.378;9.948;2023-02-02T16:23:12;6.65;;;1.92;;
77495;SDS011;66600;48.378;9.948;2023-02-02T16:25:49;4.20;;;2.20;;
77495;SDS011;66600;48.378;9.948;2023-02-02T16:28:17;6.38;;;2.45;;
77495;SDS011;66600;48.378;9.948;2023-02-02T16:30:45;5.95;;;2.22;;
77495;SDS011;66600;48.378;9.948;2023-02-02T16:36:03;7.40;;;2.50;;
77495;SDS011;66600;48.378;9.948;2023-02-02T16:38:44;7.50;;;2.50;;
77495;SDS011;66600;48.378;9.948;2023-02-02T16:41:11;6.32;;;2.20;;
77495;SDS011;66600;48.378;9.948;2023-02-02T16:43:38;5.82;;;2.38;;
77495;SDS011;66600;48.378;9.948;2023-02-02T16:46:05;6.05;;;2.70;;
77495;SDS011;66600;48.378;9.948;2023-02-02T16:48:37;5.45;;;2.63;;
77495;SDS011;66600;48.378;9.948;2023-02-02T16:54:29;9.50;;;4.47;;
77495;SDS011;66600;48.378;9.948;2023-02-02T16:59:21;6.40;;;2.67;;
77495;SDS011;66600;48.378;9.948;2023-02-02T17:01:48;5.18;;;2.97;;
77495;SDS011;66600;48.378;9.948;2023-02-02T17:06:48;3.38;;;2.08;;
77495;SDS011;66600;48.378;9.948;2023-02-02T17:09:15;5.20;;;2.00;;
77495;SDS011;66600;48.378;9.948;2023-02-02T17:11:53;5.22;;;2.20;;
77495;SDS011;66600;48.378;9.948;2023-02-02T17:17:20;4.38;;;2.20;;
77495;SDS011;66600;48.378;9.948;2023-02-02T17:19:45;4.60;;;2.10;;
77495;SDS011;66600;48.378;9.948;2023-02-02T17:22:11;3.65;;;2.15;;
77495;SDS011;66600;48.378;9.948;2023-02-02T17:24:39;5.53;;;1.90;;
77495;SDS011;66600;48.378;9.948;2023-02-02T17:27:09;3.72;;;1.80;;
77495;SDS011;66600;48.378;9.948;2023-02-02T17:29:39;6.63;;;2.20;;
77495;SDS011;66600;48.378;9.948;2023-02-02T17:32:05;4.30;;;2.53;;
77495;SDS011;66600;48.378;9.948;2023-02-02T17:34:30;5.28;;;2.38;;
77495;SDS011;66600;48.378;9.948;2023-02-02T17:36:55;5.25;;;2.70;;
77495;SDS011;66600;48.378;9.948;2023-02-02T17:39:21;6.50;;;2.75;;
77495;SDS011;66600;48.378;9.948;2023-02-02T17:41:46;4.72;;;2.60;;
77495;SDS011;66600;48.378;9.948;2023-02-02T17:44:12;5.05;;;2.90;;